sensor_id;sensor_type;location;lat;lon;timestamp;P1;durP1;ratioP1;P2;durP2;ratioP2
63114;SDS011;49208;50.874;6.466;2023-03-01T07:04:24;16.75;;;8.88;;
63114;SDS011;49208;50.874;6.466;2023-03-01T07:06:53;14.13;;;7.63;;
63114;SDS011;49208;50.874;6.466;2023-03-01T07:09:20;18.02;;;7.78;;
63114;SDS011;49208;50.874;6.466;2023-03-01T07:11:47;19.13;;;10.07;;
63114;SDS011;49208;50.874;6.466;2023-03-01T07:14:12;22.88;;;9.82;;
63114;SDS011;49208;50.874;6.466;2023-03-01T07:16:38;22.27;;;9.38;;
63114;SDS011;49208;50.874;6.466;2023-03-01T07:19:03;19.77;;;9.63;;
63114;SDS011;49208;50.874;6.466;2023-03-01T07:21:30;19.75;;;10.68;;
63114;SDS011;49208;50.874;6.466;2023-03-01T07:23:55;19.33;;;9.13;;
63114;SDS011;49208;50.874;6.466;2023-03-01T07:26:21;17.77;;;10.07;;
63114;SDS011;49208;50.874;6.466;2023-03-01T07:28:46;23.40;;;9.88;;
63114;SDS011;49208;50.874;6.466;2023-03-01T07:31:12;20.00;;;9.98;;
63114;SDS011;49208;50.874;6.466;2023-03-01T07:33:37;18.95;;;9.95;;
63114;SDS011;49208;50.874;6.466;2023-03-01T07:36:03;17.23;;;10.02;;
63114;SDS011;49208;50.874;6.466;2023-03-01T07:38:29;22.23;;;10.48;;
63114;SDS011;49208;50.874;6.466;2023-03-01T07:40:57;21.20;;;10.07;;
63114;SDS011;49208;50.874;6.466;2023-03-01T07:43:27;16.23;;;8.57;;
63114;SDS011;49208;50.874;6.466;2023-03-01T07:45:53;23.00;;;9.85;;
63114;SDS011;49208;50.874;6.466;2023-03-01T07:48:18;19.83;;;9.55;;
63114;SDS011;49208;50.874;6.466;2023-03-01T07:50:44;23.73;;;8.65;;
63114;SDS011;49208;50.874;6.466;2023-03-01T07:53:09;18.98;;;11.20;;
63114;SDS011;49208;50.874;6.466;2023-03-01T07:55:35;16.35;;;10.13;;
63114;SDS011;49208;50.874;6.466;2023-03-01T07:58:01;20.83;;;10.15;;
63114;SDS011;49208;50.874;6.466;2023-03-01T08:00:26;21.25;;;9.02;;
63114;SDS011;49208;50.874;6.466;2023-03-01T08:02:52;17.67;;;9.15;;
63114;SDS011;49208;50.874;6.466;2023-03-01T08:05:17;20.70;;;9.30;;
63114;SDS011;49208;50.874;6.466;2023-03-01T08:07:43;21.20;;;10.00;;
63114;SDS011;49208;50.874;6.466;2023-03-01T08:10:08;19.90;;;10.20;;
63114;SDS011;49208;50.874;6.466;2023-03-01T08:12:34;16.30;;;9.20;;
63114;SDS011;49208;50.874;6.466;2023-03-01T08:15:00;17.33;;;9.02;;
63114;SDS011;49208;50.874;6.466;2023-03-01T08:17:25;14.95;;;8.80;;
63114;SDS011;49208;50.874;6.466;2023-03-01T08:19:51;17.15;;;8.50;;
63114;SDS011;49208;50.874;6.466;2023-03-01T08:22:16;14.88;;;8.80;;
63114;SDS011;49208;50.874;6.466;2023-03-01T08:24:41;15.65;;;9.07;;
63114;SDS011;49208;50.874;6.466;2023-03-01T08:27:07;18.83;;;9.05;;
63114;SDS011;49208;50.874;6.466;2023-03-01T08:29:32;15.60;;;9.30;;
63114;SDS011;49208;50.874;6.466;2023-03-01T08:31:58;16.55;;;9.23;;
63114;SDS011;49208;50.874;6.466;2023-03-01T08:34:24;12.65;;;9.15;;
63114;SDS011;49208;50.874;6.466;2023-03-01T08:36:49;16.80;;;9.40;;
63114;SDS011;49208;50.874;6.466;2023-03-01T08:39:17;16.13;;;9.15;;
63114;SDS011;49208;50.874;6.466;2023-03-01T08:41:44;19.35;;;10.52;;
63114;SDS011;49208;50.874;6.466;2023-03-01T08:44:10;15.75;;;9.85;;
63114;SDS011;49208;50.874;6.466;2023-03-01T08:46:38;15.38;;;9.13;;
63114;SDS011;49208;50.874;6.466;2023-03-01T08:49:06;16.98;;;9.65;;
63114;SDS011;49208;50.874;6.466;2023-03-01T08:51:32;14.93;;;9.20;;
63114;SDS011;49208;50.874;6.466;2023-03-01T08:54:05;16.60;;;9.30;;
63114;SDS011;49208;50.874;6.466;2023-03-01T08:56:41;17.48;;;10.68;;
63114;SDS011;49208;50.874;6.466;2023-03-01T08:59:06;17.23;;;10.27;;
63114;SDS011;49208;50.874;6.466;2023-03-01T09:01:32;21.23;;;10.57;;
63114;SDS011;49208;50.874;6.466;2023-03-01T09:03:58;17.70;;;9.40;;
63114;SDS011;49208;50.874;6.466;2023-03-01T09:06:24;16.15;;;9.50;;
63114;SDS011;49208;50.874;6.466;2023-03-01T09:08:49;17.05;;;10.80;;
63114;SDS011;49208;50.874;6.466;2023-03-01T09:11:16;18.17;;;10.05;;
63114;SDS011;49208;50.874;6.466;2023-03-01T09:13:44;16.05;;;9.80;;
63114;SDS011;49208;50.874;6.466;2023-03-01T09:16:11;17.05;;;10.38;;
63114;SDS011;49208;50.874;6.466;2023-03-01T09:18:39;18.60;;;9.25;;
63114;SDS011;49208;50.874;6.466;2023-03-01T09:21:12;13.88;;;8.88;;
63114;SDS011;49208;50.874;6.466;2023-03-01T09:23:40;17.00;;;10.00;;
63114;SDS011;49208;50.874;6.466;2023-03-01T09:26:08;18.48;;;10.48;;
63114;SDS011;49208;50.874;6.466;2023-03-01T09:28:35;15.73;;;9.68;;
63114;SDS011;49208;50.874;6.466;2023-03-01T09:31:02;18.13;;;9.23;;
63114;SDS011;49208;50.874;6.466;2023-03-01T09:33:29;16.58;;;10.50;;
63114;SDS011;49208;50.874;6.466;2023-03-01T09:35:57;17.05;;;9.50;;
63114;SDS011;49208;50.874;6.466;2023-03-01T09:38:23;17.73;;;9.93;;
63114;SDS011;49208;50.874;6.466;2023-03-01T09:40:48;19.42;;;10.18;;
63114;SDS011;49208;50.874;6.466;2023-03-01T09:45:55;20.08;;;10.60;;
63114;SDS011;49208;50.874;6.466;2023-03-01T09:48:37;18.02;;;10.05;;
63114;SDS011;49208;50.874;6.466;2023-03-01T09:51:09;20.55;;;10.52;;
63114;SDS011;49208;50.874;6.466;2023-03-01T09:53:41;16.48;;;9.88;;
63114;SDS011;49208;50.874;6.466;2023-03-01T09:56:27;21.70;;;11.00;;
63114;SDS011;49208;50.874;6.466;2023-03-01T09:58:56;18.52;;;10.13;;
63114;SDS011;49208;50.874;6.466;2023-03-01T10:01:32;18.33;;;10.02;;
63114;SDS011;49208;50.874;6.466;2023-03-01T10:04:03;19.45;;;10.82;;
63114;SDS011;49208;50.874;6.466;2023-03-01T10:07:20;18.27;;;9.68;;
63114;SDS011;49208;50.874;6.466;2023-03-01T10:12:18;16.65;;;9.60;;
63114;SDS011;49208;50.874;6.466;2023-03-01T10:20:26;20.60;;;9.63;;
63114;SDS011;49208;50.874;6.466;2023-03-01T10:22:58;18.45;;;10.32;;
63114;SDS011;49208;50.874;6.466;2023-03-01T10:30:42;18.88;;;9.85;;
63114;SDS011;49208;50.874;6.466;2023-03-01T10:35:48;18.98;;;10.93;;
63114;SDS011;49208;50.874;6.466;2023-03-01T10:38:15;19.33;;;10.68;;
63114;SDS011;49208;50.874;6.466;2023-03-01T10:40:57;22.30;;;12.02;;
63114;SDS011;49208;50.874;6.466;2023-03-01T10:43:32;20.52;;;10.35;;
63114;SDS011;49208;50.874;6.466;2023-03-01T10:46:31;18.10;;;10.05;;
63114;SDS011;49208;50.874;6.466;2023-03-01T10:49:06;20.95;;;10.75;;
63114;SDS011;49208;50.874;6.466;2023-03-01T10:51:32;18.58;;;10.75;;
63114;SDS011;49208;50.874;6.466;2023-03-01T10:53:58;19.67;;;9.30;;
63114;SDS011;49208;50.874;6.466;2023-03-01T10:56:23;21.73;;;10.95;;
63114;SDS011;49208;50.874;6.466;2023-03-01T11:01:31;17.35;;;9.88;;
63114;SDS011;49208;50.874;6.466;2023-03-01T11:06:30;18.80;;;10.38;;
63114;SDS011;49208;50.874;6.466;2023-03-01T11:08:57;18.45;;;10.05;;
63114;SDS011;49208;50.874;6.466;2023-03-01T11:11:41;20.35;;;10.10;;
63114;SDS011;49208;50.874;6.466;2023-03-01T11:14:12;22.42;;;11.40;;
63114;SDS011;49208;50.874;6.466;2023-03-01T11:16:38;18.80;;;10.40;;
63114;SDS011;49208;50.874;6.466;2023-03-01T11:21:43;19.98;;;10.85;;
63114;SDS011;49208;50.874;6.466;2023-03-01T11:24:15;18.65;;;10.18;;
63114;SDS011;49208;50.874;6.466;2023-03-01T11:26:43;24.08;;;10.88;;
63114;SDS011;49208;50.874;6.466;2023-03-01T11:29:14;20.27;;;11.25;;
63114;SDS011;49208;50.874;6.466;2023-03-01T11:32:03;15.52;;;9.73;;
63114;SDS011;49208;50.874;6.466;2023-03-01T11:34:47;18.13;;;9.32;;
63114;SDS011;49208;50.874;6.466;2023-03-01T11:37:40;17.87;;;10.17;;
63114;SDS011;49208;50.874;6.466;2023-03-01T11:40:23;20.75;;;10.65;;
63114;SDS011;49208;50.874;6.466;2023-03-01T11:43:08;19.38;;;10.30;;
63114;SDS011;49208;50.874;6.466;2023-03-01T11:45:46;19.83;;;11.13;;
63114;SDS011;49208;50.874;6.466;2023-03-01T11:51:17;17.55;;;10.20;;
63114;SDS011;49208;50.874;6.466;2023-03-01T11:54:00;20.67;;;10.63;;
63114;SDS011;49208;50.874;6.466;2023-03-01T11:56:32;17.08;;;9.75;;
63114;SDS011;49208;50.874;6.466;2023-03-01T12:12:27;16.60;;;8.98;;
63114;SDS011;49208;50.874;6.466;2023-03-01T12:15:04;15.13;;;8.80;;
63114;SDS011;49208;50.874;6.466;2023-03-01T12:20:35;18.67;;;9.77;;
63114;SDS011;49208;50.874;6.466;2023-03-01T12:28:44;15.35;;;9.27;;
63114;SDS011;49208;50.874;6.466;2023-03-01T12:34:55;17.20;;;9.60;;
63114;SDS011;49208;50.874;6.466;2023-03-01T12:37:41;17.38;;;9.05;;
63114;SDS011;49208;50.874;6.466;2023-03-01T12:40:22;16.92;;;9.10;;
63114;SDS011;49208;50.874;6.466;2023-03-01T12:51:06;16.58;;;9.85;;
63114;SDS011;49208;50.874;6.466;2023-03-01T12:53:41;14.43;;;9.25;;
63114;SDS011;49208;50.874;6.466;2023-03-01T12:56:12;17.60;;;9.23;;
63114;SDS011;49208;50.874;6.466;2023-03-01T13:04:27;19.90;;;9.80;;
63114;SDS011;49208;50.874;6.466;2023-03-01T13:17:49;13.73;;;7.90;;
63114;SDS011;49208;50.874;6.466;2023-03-01T13:20:18;15.90;;;8.80;;
63114;SDS011;49208;50.874;6.466;2023-03-01T13:23:40;15.43;;;9.13;;
63114;SDS011;49208;50.874;6.466;2023-03-01T13:33:41;13.38;;;8.30;;
63114;SDS011;49208;50.874;6.466;2023-03-01T13:46:50;13.43;;;8.18;;
63114;SDS011;49208;50.874;6.466;2023-03-01T13:49:22;16.52;;;8.82;;
63114;SDS011;49208;50.874;6.466;2023-03-01T13:51:50;16.92;;;9.10;;
63114;SDS011;49208;50.874;6.466;2023-03-01T13:54:18;14.23;;;8.30;;
63114;SDS011;49208;50.874;6.466;2023-03-01T13:56:51;17.88;;;9.70;;
63114;SDS011;49208;50.874;6.466;2023-03-01T13:59:19;16.67;;;9.63;;
63114;SDS011;49208;50.874;6.466;2023-03-01T14:01:52;16.15;;;9.10;;
63114;SDS011;49208;50.874;6.466;2023-03-01T14:04:22;17.80;;;9.15;;
63114;SDS011;49208;50.874;6.466;2023-03-01T14:06:51;12.77;;;8.82;;
63114;SDS011;49208;50.874;6.466;2023-03-01T14:09:20;17.55;;;9.00;;
63114;SDS011;49208;50.874;6.466;2023-03-01T14:14:44;15.75;;;8.40;;
63114;SDS011;49208;50.874;6.466;2023-03-01T14:20:07;16.80;;;9.25;;
63114;SDS011;49208;50.874;6.466;2023-03-01T14:22:36;16.83;;;8.55;;
63114;SDS011;49208;50.874;6.466;2023-03-01T14:25:06;15.05;;;8.52;;
63114;SDS011;49208;50.874;6.466;2023-03-01T14:27:44;17.48;;;9.30;;
63114;SDS011;49208;50.874;6.466;2023-03-01T14:30:11;17.00;;;8.35;;
63114;SDS011;49208;50.874;6.466;2023-03-01T14:32:40;13.88;;;8.15;;
63114;SDS011;49208;50.874;6.466;2023-03-01T14:35:22;16.90;;;9.73;;
63114;SDS011;49208;50.874;6.466;2023-03-01T14:37:53;18.02;;;10.38;;
63114;SDS011;49208;50.874;6.466;2023-03-01T14:40:28;14.30;;;8.90;;
63114;SDS011;49208;50.874;6.466;2023-03-01T14:42:57;14.82;;;9.38;;
63114;SDS011;49208;50.874;6.466;2023-03-01T14:45:26;16.42;;;8.52;;
63114;SDS011;49208;50.874;6.466;2023-03-01T14:47:54;16.25;;;8.68;;
63114;SDS011;49208;50.874;6.466;2023-03-01T14:50:31;16.85;;;8.70;;
63114;SDS011;49208;50.874;6.466;2023-03-01T14:53:00;17.00;;;8.18;;
63114;SDS011;49208;50.874;6.466;2023-03-01T14:55:31;11.60;;;7.35;;
63114;SDS011;49208;50.874;6.466;2023-03-01T14:58:00;15.00;;;8.10;;
63114;SDS011;49208;50.874;6.466;2023-03-01T15:00:31;17.15;;;7.10;;
63114;SDS011;49208;50.874;6.466;2023-03-01T15:03:20;13.25;;;7.95;;
63114;SDS011;49208;50.874;6.466;2023-03-01T15:05:50;13.80;;;7.55;;
63114;SDS011;49208;50.874;6.466;2023-03-01T15:08:18;19.33;;;8.27;;
63114;SDS011;49208;50.874;6.466;2023-03-01T15:10:58;18.23;;;7.22;;
63114;SDS011;49208;50.874;6.466;2023-03-01T15:13:42;11.32;;;7.18;;
63114;SDS011;49208;50.874;6.466;2023-03-01T15:16:18;15.77;;;7.63;;
63114;SDS011;49208;50.874;6.466;2023-03-01T15:18:52;13.25;;;7.63;;
63114;SDS011;49208;50.874;6.466;2023-03-01T15:21:27;17.90;;;8.27;;
63114;SDS011;49208;50.874;6.466;2023-03-01T15:24:05;14.30;;;7.55;;
63114;SDS011;49208;50.874;6.466;2023-03-01T15:29:31;14.20;;;7.47;;
63114;SDS011;49208;50.874;6.466;2023-03-01T15:31:59;14.73;;;6.90;;
63114;SDS011;49208;50.874;6.466;2023-03-01T15:34:33;14.00;;;7.72;;
63114;SDS011;49208;50.874;6.466;2023-03-01T15:37:02;12.65;;;7.25;;
63114;SDS011;49208;50.874;6.466;2023-03-01T15:39:37;13.77;;;7.72;;
63114;SDS011;49208;50.874;6.466;2023-03-01T15:42:11;11.82;;;7.22;;
63114;SDS011;49208;50.874;6.466;2023-03-01T15:45:07;14.70;;;7.03;;
63114;SDS011;49208;50.874;6.466;2023-03-01T15:47:33;14.30;;;7.63;;
63114;SDS011;49208;50.874;6.466;2023-03-01T15:50:00;11.70;;;7.05;;
63114;SDS011;49208;50.874;6.466;2023-03-01T15:52:29;13.02;;;7.65;;
63114;SDS011;49208;50.874;6.466;2023-03-01T15:55:02;10.82;;;6.90;;
63114;SDS011;49208;50.874;6.466;2023-03-01T15:57:31;13.70;;;6.32;;
63114;SDS011;49208;50.874;6.466;2023-03-01T15:59:56;12.18;;;6.80;;
63114;SDS011;49208;50.874;6.466;2023-03-01T16:02:22;13.23;;;7.38;;
63114;SDS011;49208;50.874;6.466;2023-03-01T16:04:49;14.07;;;7.90;;
63114;SDS011;49208;50.874;6.466;2023-03-01T16:07:15;14.73;;;7.40;;
63114;SDS011;49208;50.874;6.466;2023-03-01T16:09:41;14.80;;;8.35;;
63114;SDS011;49208;50.874;6.466;2023-03-01T16:14:37;10.80;;;6.65;;
63114;SDS011;49208;50.874;6.466;2023-03-01T16:17:03;13.57;;;6.57;;
63114;SDS011;49208;50.874;6.466;2023-03-01T16:19:29;12.15;;;6.88;;
63114;SDS011;49208;50.874;6.466;2023-03-01T16:21:54;12.20;;;6.93;;
63114;SDS011;49208;50.874;6.466;2023-03-01T16:24:21;15.32;;;7.72;;
63114;SDS011;49208;50.874;6.466;2023-03-01T16:26:46;12.90;;;7.00;;
63114;SDS011;49208;50.874;6.466;2023-03-01T16:29:11;11.52;;;7.28;;
63114;SDS011;49208;50.874;6.466;2023-03-01T16:31:37;15.38;;;6.90;;
63114;SDS011;49208;50.874;6.466;2023-03-01T16:34:02;15.68;;;7.43;;
63114;SDS011;49208;50.874;6.466;2023-03-01T16:36:28;9.82;;;6.10;;
63114;SDS011;49208;50.874;6.466;2023-03-01T16:38:54;13.50;;;6.82;;
63114;SDS011;49208;50.874;6.466;2023-03-01T16:41:21;16.47;;;7.30;;
63114;SDS011;49208;50.874;6.466;2023-03-01T16:43:48;10.85;;;7.05;;
63114;SDS011;49208;50.874;6.466;2023-03-01T16:46:14;14.00;;;8.52;;
63114;SDS011;49208;50.874;6.466;2023-03-01T16:48:45;10.50;;;6.47;;
63114;SDS011;49208;50.874;6.466;2023-03-01T16:51:11;15.63;;;9.68;;
63114;SDS011;49208;50.874;6.466;2023-03-01T16:53:38;13.45;;;7.15;;
63114;SDS011;49208;50.874;6.466;2023-03-01T16:56:07;12.82;;;6.78;;
63114;SDS011;49208;50.874;6.466;2023-03-01T16:58:35;13.75;;;6.72;;
63114;SDS011;49208;50.874;6.466;2023-03-01T17:01:11;13.52;;;6.95;;
63114;SDS011;49208;50.874;6.466;2023-03-01T17:03:41;10.85;;;6.25;;
63114;SDS011;49208;50.874;6.466;2023-03-01T17:06:08;12.02;;;6.30;;
63114;SDS011;49208;50.874;6.466;2023-03-01T17:08:36;12.35;;;7.10;;
63114;SDS011;49208;50.874;6.466;2023-03-01T17:11:06;11.50;;;6.93;;
63114;SDS011;49208;50.874;6.466;2023-03-01T17:13:36;13.68;;;6.45;;
63114;SDS011;49208;50.874;6.466;2023-03-01T17:16:03;12.93;;;6.78;;
63114;SDS011;49208;50.874;6.466;2023-03-01T17:18:30;13.50;;;6.93;;
63114;SDS011;49208;50.874;6.466;2023-03-01T17:20:56;16.02;;;6.57;;
63114;SDS011;49208;50.874;6.466;2023-03-01T17:23:21;14.45;;;7.25;;
63114;SDS011;49208;50.874;6.466;2023-03-01T17:25:46;19.05;;;9.15;;
63114;SDS011;49208;50.874;6.466;2023-03-01T17:28:12;13.98;;;6.45;;
63114;SDS011;49208;50.874;6.466;2023-03-01T17:30:44;62.08;;;32.03;;
63114;SDS011;49208;50.874;6.466;2023-03-01T17:33:11;23.77;;;15.10;;
63114;SDS011;49208;50.874;6.466;2023-03-01T17:35:38;15.20;;;7.15;;
63114;SDS011;49208;50.874;6.466;2023-03-01T17:38:04;17.55;;;6.85;;
63114;SDS011;49208;50.874;6.466;2023-03-01T17:40:30;14.57;;;7.20;;
63114;SDS011;49208;50.874;6.466;2023-03-01T17:42:57;17.23;;;7.32;;
63114;SDS011;49208;50.874;6.466;2023-03-01T17:45:22;14.93;;;6.63;;
63114;SDS011;49208;50.874;6.466;2023-03-01T17:47:48;13.65;;;6.88;;
63114;SDS011;49208;50.874;6.466;2023-03-01T17:50:13;12.82;;;6.07;;
63114;SDS011;49208;50.874;6.466;2023-03-01T17:52:39;11.15;;;6.20;;
63114;SDS011;49208;50.874;6.466;2023-03-01T17:55:06;9.90;;;6.30;;
63114;SDS011;49208;50.874;6.466;2023-03-01T17:57:32;12.37;;;5.83;;
63114;SDS011;49208;50.874;6.466;2023-03-01T17:59:58;11.57;;;6.35;;
63114;SDS011;49208;50.874;6.466;2023-03-01T18:02:24;10.30;;;5.97;;
63114;SDS011;49208;50.874;6.466;2023-03-01T18:04:50;11.05;;;5.63;;
63114;SDS011;49208;50.874;6.466;2023-03-01T18:07:17;11.98;;;5.90;;
63114;SDS011;49208;50.874;6.466;2023-03-01T18:09:43;13.38;;;5.63;;
63114;SDS011;49208;50.874;6.466;2023-03-01T18:12:08;10.80;;;6.35;;
63114;SDS011;49208;50.874;6.466;2023-03-01T18:14:34;9.32;;;5.53;;
63114;SDS011;49208;50.874;6.466;2023-03-01T18:17:00;13.93;;;6.63;;
63114;SDS011;49208;50.874;6.466;2023-03-01T18:19:28;15.35;;;6.03;;
63114;SDS011;49208;50.874;6.466;2023-03-01T18:21:53;13.48;;;6.68;;
63114;SDS011;49208;50.874;6.466;2023-03-01T18:24:19;12.88;;;6.47;;
63114;SDS011;49208;50.874;6.466;2023-03-01T18:26:44;10.25;;;5.55;;
63114;SDS011;49208;50.874;6.466;2023-03-01T18:29:09;12.63;;;6.07;;
63114;SDS011;49208;50.874;6.466;2023-03-01T18:31:35;12.02;;;6.57;;
63114;SDS011;49208;50.874;6.466;2023-03-01T18:34:01;11.65;;;6.45;;
63114;SDS011;49208;50.874;6.466;2023-03-01T18:36:27;13.98;;;6.13;;
63114;SDS011;49208;50.874;6.466;2023-03-01T18:38:55;13.95;;;6.13;;
63114;SDS011;49208;50.874;6.466;2023-03-01T18:41:21;12.65;;;6.10;;
63114;SDS011;49208;50.874;6.466;2023-03-01T18:43:51;9.70;;;5.65;;
63114;SDS011;49208;50.874;6.466;2023-03-01T18:46:16;10.43;;;5.72;;
63114;SDS011;49208;50.874;6.466;2023-03-01T18:48:44;14.63;;;6.25;;
63114;SDS011;49208;50.874;6.466;2023-03-01T18:51:10;11.65;;;5.82;;
63114;SDS011;49208;50.874;6.466;2023-03-01T18:53:37;15.98;;;6.32;;
63114;SDS011;49208;50.874;6.466;2023-03-01T18:56:03;13.07;;;6.57;;
63114;SDS011;49208;50.874;6.466;2023-03-01T18:58:30;12.05;;;6.00;;
63114;SDS011;49208;50.874;6.466;2023-03-01T19:00:55;10.32;;;6.07;;
63114;SDS011;49208;50.874;6.466;2023-03-01T19:03:20;18.17;;;8.82;;
63114;SDS011;49208;50.874;6.466;2023-03-01T19:05:46;13.27;;;6.03;;
63114;SDS011;49208;50.874;6.466;2023-03-01T19:08:11;25.45;;;6.72;;
63114;SDS011;49208;50.874;6.466;2023-03-01T19:10:37;16.65;;;6.68;;
63114;SDS011;49208;50.874;6.466;2023-03-01T19:13:02;17.92;;;6.25;;
63114;SDS011;49208;50.874;6.466;2023-03-01T19:15:27;12.90;;;6.78;;
63114;SDS011;49208;50.874;6.466;2023-03-01T19:17:53;12.65;;;5.95;;
63114;SDS011;49208;50.874;6.466;2023-03-01T19:20:18;14.15;;;5.93;;
63114;SDS011;49208;50.874;6.466;2023-03-01T19:22:44;12.57;;;6.38;;
63114;SDS011;49208;50.874;6.466;2023-03-01T19:25:09;12.88;;;6.35;;
63114;SDS011;49208;50.874;6.466;2023-03-01T19:27:34;17.27;;;6.35;;
63114;SDS011;49208;50.874;6.466;2023-03-01T19:30:00;13.85;;;6.00;;
63114;SDS011;49208;50.874;6.466;2023-03-01T19:32:25;13.77;;;5.82;;
63114;SDS011;49208;50.874;6.466;2023-03-01T19:34:51;14.27;;;5.75;;
63114;SDS011;49208;50.874;6.466;2023-03-01T19:37:16;12.60;;;6.18;;
63114;SDS011;49208;50.874;6.466;2023-03-01T19:39:41;12.05;;;5.60;;
63114;SDS011;49208;50.874;6.466;2023-03-01T19:42:07;9.75;;;5.82;;
63114;SDS011;49208;50.874;6.466;2023-03-01T19:44:33;11.15;;;5.68;;
63114;SDS011;49208;50.874;6.466;2023-03-01T19:46:58;16.52;;;6.95;;
63114;SDS011;49208;50.874;6.466;2023-03-01T19:49:24;14.82;;;6.32;;
63114;SDS011;49208;50.874;6.466;2023-03-01T19:51:50;11.05;;;5.75;;
63114;SDS011;49208;50.874;6.466;2023-03-01T19:54:17;11.38;;;6.20;;
63114;SDS011;49208;50.874;6.466;2023-03-01T19:56:46;13.18;;;6.32;;
63114;SDS011;49208;50.874;6.466;2023-03-01T19:59:13;13.15;;;7.38;;
63114;SDS011;49208;50.874;6.466;2023-03-01T20:01:39;11.00;;;6.03;;
63114;SDS011;49208;50.874;6.466;2023-03-01T20:04:07;12.63;;;5.80;;
63114;SDS011;49208;50.874;6.466;2023-03-01T20:06:34;11.63;;;6.22;;
63114;SDS011;49208;50.874;6.466;2023-03-01T20:09:01;10.82;;;6.15;;
63114;SDS011;49208;50.874;6.466;2023-03-01T20:11:28;11.48;;;5.43;;
63114;SDS011;49208;50.874;6.466;2023-03-01T20:13:54;12.18;;;5.60;;
63114;SDS011;49208;50.874;6.466;2023-03-01T20:16:19;13.70;;;6.65;;
63114;SDS011;49208;50.874;6.466;2023-03-01T20:18:46;12.80;;;6.40;;
63114;SDS011;49208;50.874;6.466;2023-03-01T20:21:12;10.38;;;5.60;;
63114;SDS011;49208;50.874;6.466;2023-03-01T20:23:38;11.75;;;6.10;;
63114;SDS011;49208;50.874;6.466;2023-03-01T20:26:05;13.00;;;6.50;;
63114;SDS011;49208;50.874;6.466;2023-03-01T20:28:33;12.52;;;6.57;;
63114;SDS011;49208;50.874;6.466;2023-03-01T20:31:07;12.23;;;5.63;;
63114;SDS011;49208;50.874;6.466;2023-03-01T20:33:35;14.23;;;5.78;;
63114;SDS011;49208;50.874;6.466;2023-03-01T20:36:00;17.00;;;6.43;;
63114;SDS011;49208;50.874;6.466;2023-03-01T20:38:26;12.65;;;6.57;;
63114;SDS011;49208;50.874;6.466;2023-03-01T20:41:05;9.70;;;6.22;;
63114;SDS011;49208;50.874;6.466;2023-03-01T20:43:32;13.23;;;6.15;;
63114;SDS011;49208;50.874;6.466;2023-03-01T20:46:01;11.70;;;6.20;;
63114;SDS011;49208;50.874;6.466;2023-03-01T20:48:28;14.18;;;6.75;;
63114;SDS011;49208;50.874;6.466;2023-03-01T20:50:53;11.75;;;6.55;;
63114;SDS011;49208;50.874;6.466;2023-03-01T20:53:20;10.98;;;5.70;;
63114;SDS011;49208;50.874;6.466;2023-03-01T20:55:46;11.52;;;5.38;;
63114;SDS011;49208;50.874;6.466;2023-03-01T20:58:11;12.60;;;6.18;;
63114;SDS011;49208;50.874;6.466;2023-03-01T21:00:37;11.90;;;6.03;;
63114;SDS011;49208;50.874;6.466;2023-03-01T21:03:02;11.30;;;5.45;;
63114;SDS011;49208;50.874;6.466;2023-03-01T21:05:28;10.45;;;5.38;;
63114;SDS011;49208;50.874;6.466;2023-03-01T21:07:53;11.93;;;6.25;;
63114;SDS011;49208;50.874;6.466;2023-03-01T21:10:18;15.30;;;5.85;;
63114;SDS011;49208;50.874;6.466;2023-03-01T21:12:44;11.25;;;6.15;;
63114;SDS011;49208;50.874;6.466;2023-03-01T21:15:09;12.30;;;5.75;;
63114;SDS011;49208;50.874;6.466;2023-03-01T21:17:35;12.55;;;6.00;;
63114;SDS011;49208;50.874;6.466;2023-03-01T21:20:00;15.75;;;6.60;;
63114;SDS011;49208;50.874;6.466;2023-03-01T21:22:26;11.88;;;5.70;;
63114;SDS011;49208;50.874;6.466;2023-03-01T21:24:53;9.75;;;5.32;;
63114;SDS011;49208;50.874;6.466;2023-03-01T21:27:18;14.43;;;6.38;;
63114;SDS011;49208;50.874;6.466;2023-03-01T21:29:45;11.77;;;5.53;;
63114;SDS011;49208;50.874;6.466;2023-03-01T21:32:11;13.20;;;6.55;;
63114;SDS011;49208;50.874;6.466;2023-03-01T21:34:38;13.77;;;6.15;;
63114;SDS011;49208;50.874;6.466;2023-03-01T21:37:04;11.80;;;6.03;;
63114;SDS011;49208;50.874;6.466;2023-03-01T21:39:31;12.40;;;5.70;;
63114;SDS011;49208;50.874;6.466;2023-03-01T21:41:58;11.50;;;5.95;;
63114;SDS011;49208;50.874;6.466;2023-03-01T21:44:25;12.45;;;5.90;;
63114;SDS011;49208;50.874;6.466;2023-03-01T21:46:52;12.38;;;6.07;;
63114;SDS011;49208;50.874;6.466;2023-03-01T21:49:18;9.48;;;5.20;;
63114;SDS011;49208;50.874;6.466;2023-03-01T21:51:45;11.73;;;6.45;;
63114;SDS011;49208;50.874;6.466;2023-03-01T21:54:11;11.70;;;6.00;;
63114;SDS011;49208;50.874;6.466;2023-03-01T21:56:38;10.52;;;5.93;;
63114;SDS011;49208;50.874;6.466;2023-03-01T21:59:04;10.75;;;5.40;;
63114;SDS011;49208;50.874;6.466;2023-03-01T22:01:30;14.82;;;5.72;;
63114;SDS011;49208;50.874;6.466;2023-03-01T22:03:56;12.48;;;5.20;;
63114;SDS011;49208;50.874;6.466;2023-03-01T22:06:27;10.25;;;5.57;;
63114;SDS011;49208;50.874;6.466;2023-03-01T22:08:55;14.43;;;5.65;;
63114;SDS011;49208;50.874;6.466;2023-03-01T22:11:23;10.85;;;5.57;;
63114;SDS011;49208;50.874;6.466;2023-03-01T22:13:51;10.40;;;6.45;;
63114;SDS011;49208;50.874;6.466;2023-03-01T22:16:20;13.63;;;6.38;;
63114;SDS011;49208;50.874;6.466;2023-03-01T22:18:49;13.02;;;6.95;;
63114;SDS011;49208;50.874;6.466;2023-03-01T22:21:15;14.18;;;6.50;;
63114;SDS011;49208;50.874;6.466;2023-03-01T22:23:40;9.95;;;5.78;;
63114;SDS011;49208;50.874;6.466;2023-03-01T22:26:06;12.02;;;5.93;;
63114;SDS011;49208;50.874;6.466;2023-03-01T22:28:33;10.82;;;5.60;;
63114;SDS011;49208;50.874;6.466;2023-03-01T22:31:04;12.18;;;6.28;;
63114;SDS011;49208;50.874;6.466;2023-03-01T22:33:30;9.82;;;5.43;;
63114;SDS011;49208;50.874;6.466;2023-03-01T22:35:56;13.25;;;6.07;;
63114;SDS011;49208;50.874;6.466;2023-03-01T22:38:23;14.35;;;5.93;;
63114;SDS011;49208;50.874;6.466;2023-03-01T22:41:21;13.57;;;5.90;;
63114;SDS011;49208;50.874;6.466;2023-03-01T22:43:40;10.63;;;6.00;;
63114;SDS011;49208;50.874;6.466;2023-03-01T22:46:13;12.02;;;5.93;;
63114;SDS011;49208;50.874;6.466;2023-03-01T22:48:43;12.75;;;5.88;;
63114;SDS011;49208;50.874;6.466;2023-03-01T22:51:28;14.48;;;6.47;;
63114;SDS011;49208;50.874;6.466;2023-03-01T22:53:56;11.52;;;5.47;;
63114;SDS011;49208;50.874;6.466;2023-03-01T22:56:24;15.95;;;6.10;;
63114;SDS011;49208;50.874;6.466;2023-03-01T22:58:52;13.13;;;6.10;;
